Time;durP1;ratioP1;P1;durP2;ratioP2;P2;SDS_P1;SDS_P2;PMS_P1;PMS_P2;Temp;Humidity;BMP_temperature;BMP_pressure;BME280_temperature;BME280_humidity;BME280_pressure;Samples;Min_cycle;Max_cycle;Signal;HPM_P1;HPM_P2
2022/03/16 00:02:05;;;;;;;;;23.50;20.75;;;;;5.97;56.72;102446.34;146606;563;46012;-71
2022/03/16 00:04:59;;;;;;;;;21.50;19.00;;;;;6.02;56.37;102436.53;146604;635;46017;-70
2022/03/16 00:07:51;;;;;;;;;20.75;19.00;;;;;6.09;56.58;102433.78;146604;564;46020;-70
2022/03/16 00:10:43;;;;;;;;;22.50;20.25;;;;;6.13;56.16;102435.88;146603;639;47014;-70
2022/03/16 00:13:36;;;;;;;;;21.00;19.50;;;;;6.18;55.73;102444.06;146606;601;45022;-70
2022/03/16 00:16:28;;;;;;;;;28.75;27.25;;;;;6.23;55.81;102442.81;146601;578;46016;-70
2022/03/16 00:19:20;;;;;;;;;29.00;25.25;;;;;6.27;55.71;102447.50;146602;637;46020;-70
2022/03/16 00:22:13;;;;;;;;;23.25;23.25;;;;;6.29;56.20;102437.34;146604;632;46016;-69
2022/03/16 00:25:05;;;;;;;;;26.75;23.00;;;;;6.34;55.85;102449.00;146608;647;46010;-68
2022/03/16 00:27:57;;;;;;;;;41.50;31.50;;;;;6.38;56.15;102440.81;146604;594;46016;-69
2022/03/16 00:30:50;;;;;;;;;41.50;35.00;;;;;6.45;55.29;102433.81;146607;571;46012;-69
2022/03/16 00:33:43;;;;;;;;;29.50;26.50;;;;;6.53;55.51;102431.03;146603;564;46016;-70
2022/03/16 00:36:35;;;;;;;;;34.50;29.50;;;;;6.55;55.67;102429.53;146606;573;45021;-69
2022/03/16 00:39:27;;;;;;;;;36.75;29.25;;;;;6.58;55.25;102429.81;146603;565;46016;-69
2022/03/16 00:42:19;;;;;;;;;36.50;32.00;;;;;6.58;55.49;102416.94;146603;585;46021;-69
2022/03/16 00:45:12;;;;;;;;;43.75;34.50;;;;;6.57;56.28;102417.69;146605;588;46012;-69
2022/03/16 00:48:04;;;;;;;;;41.00;33.75;;;;;6.54;56.71;102423.47;146602;601;46020;-70
2022/03/16 00:50:56;;;;;;;;;33.00;29.50;;;;;6.46;56.10;102415.00;146604;579;46014;-70
2022/03/16 00:53:48;;;;;;;;;46.00;35.00;;;;;6.38;57.62;102403.06;146605;597;46020;-70
2022/03/16 00:56:40;;;;;;;;;50.75;42.75;;;;;6.24;57.27;102396.59;146603;658;46028;-70
2022/03/16 00:59:32;;;;;;;;;47.00;36.25;;;;;6.08;57.05;102387.28;146603;563;46020;-70
2022/03/16 01:02:24;;;;;;;;;33.25;31.00;;;;;5.96;58.25;102390.47;146604;584;46014;-70
2022/03/16 01:05:16;;;;;;;;;29.75;28.00;;;;;5.84;57.53;102385.78;146604;620;46021;-72
2022/03/16 01:08:08;;;;;;;;;32.75;29.50;;;;;5.77;57.45;102395.50;146606;619;46014;-72
2022/03/16 01:11:00;;;;;;;;;27.00;27.00;;;;;5.72;58.31;102386.41;146605;564;46011;-73
2022/03/16 01:13:52;;;;;;;;;37.75;30.25;;;;;5.67;58.17;102374.78;146604;566;46012;-72
2022/03/16 01:16:44;;;;;;;;;24.75;22.75;;;;;5.66;58.35;102374.59;146605;645;46010;-73
2022/03/16 01:19:36;;;;;;;;;22.25;19.50;;;;;5.65;58.56;102372.81;146602;615;46017;-73
2022/03/16 01:22:29;;;;;;;;;25.25;23.25;;;;;5.64;58.93;102371.91;146605;806;46020;-70
2022/03/16 01:25:21;;;;;;;;;34.75;29.50;;;;;5.64;58.55;102360.66;146600;565;46016;-70
2022/03/16 01:28:13;;;;;;;;;30.50;24.00;;;;;5.64;58.68;102352.94;146607;616;46010;-71
2022/03/16 01:31:05;;;;;;;;;20.75;18.25;;;;;5.63;58.78;102349.47;146601;579;46016;-70
2022/03/16 01:33:58;;;;;;;;;16.50;14.00;;;;;5.63;58.66;102346.00;146604;596;46021;-70
2022/03/16 01:36:50;;;;;;;;;18.00;16.25;;;;;5.62;59.01;102341.63;146602;569;46917;-69
2022/03/16 01:39:42;;;;;;;;;23.50;17.25;;;;;5.64;58.98;102340.09;146603;570;46020;-69
2022/03/16 01:42:34;;;;;;;;;25.25;22.25;;;;;5.65;58.53;102344.50;146601;623;46016;-74
2022/03/16 01:45:27;;;;;;;;;26.00;19.75;;;;;5.67;58.38;102340.38;146603;593;46020;-71
2022/03/16 01:48:20;;;;;;;;;22.50;20.75;;;;;5.66;59.07;102330.84;146601;564;46026;-75
2022/03/16 01:51:12;;;;;;;;;26.00;23.50;;;;;5.65;59.80;102318.75;146606;625;46021;-74
2022/03/16 01:54:05;;;;;;;;;27.50;24.25;;;;;5.57;60.30;102308.63;146604;619;46012;-76
2022/03/16 01:56:57;;;;;;;;;25.75;21.75;;;;;5.55;60.62;102306.69;146605;619;46012;-75
2022/03/16 01:59:50;;;;;;;;;29.00;24.75;;;;;5.53;59.59;102301.37;146602;593;46014;-72
2022/03/16 02:02:42;;;;;;;;;26.00;23.50;;;;;5.56;59.34;102301.66;146603;606;46020;-73
2022/03/16 02:05:34;;;;;;;;;26.00;22.25;;;;;5.62;60.13;102290.16;146604;599;46014;-72
2022/03/16 02:08:27;;;;;;;;;26.50;21.25;;;;;5.60;61.45;102282.28;146608;576;46010;-73
2022/03/16 02:11:19;;;;;;;;;23.25;21.25;;;;;5.58;61.17;102286.41;146599;587;46017;-73
2022/03/16 02:14:11;;;;;;;;;25.00;21.00;;;;;5.57;61.18;102295.75;146606;587;46010;-73
2022/03/16 02:17:03;;;;;;;;;24.50;22.00;;;;;5.59;59.81;102285.62;146602;770;46016;-73
2022/03/16 02:19:56;;;;;;;;;22.75;20.25;;;;;5.64;59.76;102289.56;146607;676;46010;-74
2022/03/16 02:23:14;;;;;;;;;24.50;21.75;;;;;5.61;59.01;102260.94;146605;566;46016;-74
2022/03/16 02:26:06;;;;;;;;;29.00;26.25;;;;;5.82;59.18;102284.31;146605;564;46010;-74
2022/03/16 02:28:58;;;;;;;;;30.75;27.50;;;;;5.86;59.75;102273.59;146604;563;46016;-74
2022/03/16 02:31:50;;;;;;;;;25.00;24.00;;;;;5.85;59.22;102280.38;146606;574;46010;-76
2022/03/16 02:34:42;;;;;;;;;27.00;24.75;;;;;5.84;59.10;102283.72;146603;595;46016;-75
2022/03/16 02:37:35;;;;;;;;;28.75;24.25;;;;;5.80;60.40;102281.63;146607;571;46020;-75
2022/03/16 02:40:27;;;;;;;;;31.50;25.75;;;;;5.77;59.61;102278.75;146627;627;45016;-76
2022/03/16 02:43:20;;;;;;;;;25.00;19.25;;;;;5.76;59.33;102276.91;146627;627;46010;-76
2022/03/16 02:46:12;;;;;;;;;21.50;20.75;;;;;5.77;59.25;102276.19;146628;599;46010;-74
2022/03/16 02:49:04;;;;;;;;;18.00;18.00;;;;;5.79;59.91;102277.22;146630;560;45010;-74
2022/03/16 02:51:56;;;;;;;;;22.00;19.25;;;;;5.80;60.02;102273.91;146631;734;45012;-74
2022/03/16 02:54:48;;;;;;;;;21.00;18.00;;;;;5.78;60.10;102275.41;146630;587;44050;-73
2022/03/16 02:57:41;;;;;;;;;20.75;17.00;;;;;5.76;59.68;102264.06;146627;567;45025;-72
2022/03/16 03:00:34;;;;;;;;;19.50;17.25;;;;;5.72;59.69;102255.12;146626;667;45020;-77
2022/03/16 03:03:26;;;;;;;;;20.75;19.25;;;;;5.72;60.40;102254.25;146627;573;45918;-70
2022/03/16 03:06:18;;;;;;;;;21.75;18.25;;;;;5.71;60.42;102255.00;146627;589;46917;-71
2022/03/16 03:09:10;;;;;;;;;23.00;21.75;;;;;5.70;59.84;102248.03;146629;592;45017;-70
2022/03/16 03:12:02;;;;;;;;;22.25;18.00;;;;;5.67;60.10;102242.59;146626;710;46012;-73
2022/03/16 03:14:54;;;;;;;;;18.50;17.25;;;;;5.65;60.24;102241.56;146628;789;45016;-72
2022/03/16 03:17:47;;;;;;;;;16.75;16.25;;;;;5.61;61.46;102242.94;146629;605;45029;-74
2022/03/16 03:20:39;;;;;;;;;21.50;19.75;;;;;5.52;61.74;102242.06;146626;677;45016;-74
2022/03/16 03:23:31;;;;;;;;;21.75;21.25;;;;;5.42;62.23;102244.50;146630;563;45020;-76
2022/03/16 03:26:23;;;;;;;;;19.00;17.75;;;;;5.36;62.16;102246.47;146627;581;46012;-74
2022/03/16 03:29:15;;;;;;;;;13.75;13.50;;;;;5.32;61.72;102237.56;146630;572;45012;-74
2022/03/16 03:32:08;;;;;;;;;19.50;17.25;;;;;5.33;61.92;102234.25;146630;615;45016;-75
2022/03/16 03:35:00;;;;;;;;;18.75;17.25;;;;;5.36;61.30;102221.69;146627;576;45021;-78
2022/03/16 03:37:54;;;;;;;;;22.75;19.75;;;;;5.42;61.43;102224.84;146628;772;45012;-77
2022/03/16 03:40:46;;;;;;;;;18.25;16.25;;;;;5.48;60.75;102222.84;146606;691;46011;-77
2022/03/16 03:43:38;;;;;;;;;20.00;18.75;;;;;5.53;60.99;102207.84;146602;630;46016;-78
2022/03/16 03:46:31;;;;;;;;;21.75;18.25;;;;;5.53;62.18;102208.75;146603;597;46021;-77
2022/03/16 03:49:22;;;;;;;;;21.50;17.50;;;;;5.56;61.59;102215.84;146604;593;46012;-77
2022/03/16 03:52:14;;;;;;;;;18.75;17.00;;;;;5.59;62.02;102208.44;146607;612;46010;-76
2022/03/16 03:55:07;;;;;;;;;22.50;19.25;;;;;5.62;62.67;102220.69;146602;587;46017;-76
2022/03/16 03:57:59;;;;;;;;;27.75;26.00;;;;;5.65;61.37;102223.53;146606;648;46012;-77
2022/03/16 04:00:52;;;;;;;;;70.25;53.75;;;;;5.70;61.35;102224.88;146601;602;46016;-79
2022/03/16 04:03:45;;;;;;;;;62.50;50.00;;;;;5.77;61.68;102214.41;146605;579;47011;-77
2022/03/16 04:06:37;;;;;;;;;55.75;44.00;;;;;5.83;61.44;102214.09;146604;575;46012;-77
2022/03/16 04:09:29;;;;;;;;;53.50;41.50;;;;;5.88;61.46;102221.44;146604;664;46012;-72
2022/03/16 04:12:21;;;;;;;;;52.50;42.25;;;;;5.94;60.95;102227.22;146603;596;47012;-75
2022/03/16 04:15:14;;;;;;;;;47.00;36.25;;;;;5.97;61.31;102222.34;146606;569;46010;-74
2022/03/16 04:18:06;;;;;;;;;42.25;31.25;;;;;5.98;61.31;102225.81;146602;585;46017;-75
2022/03/16 04:20:58;;;;;;;;;35.25;32.25;;;;;5.97;61.48;102227.50;146603;712;46020;-74
2022/03/16 04:23:50;;;;;;;;;36.75;29.25;;;;;5.98;61.51;102226.75;146605;564;45918;-75
2022/03/16 04:26:41;;;;;;;;;33.00;30.75;;;;;5.97;61.92;102231.75;146607;636;46010;-78
2022/03/16 04:29:33;;;;;;;;;39.25;33.75;;;;;5.91;62.89;102220.84;146602;579;46016;-74
2022/03/16 04:32:26;;;;;;;;;34.25;32.50;;;;;5.88;62.76;102224.03;146605;595;46020;-74
2022/03/16 04:35:17;;;;;;;;;30.50;28.75;;;;;5.79;61.93;102218.94;146605;800;46012;-76
2022/03/16 04:38:09;;;;;;;;;31.25;28.75;;;;;5.77;62.21;102217.00;146606;598;46010;-79
2022/03/16 04:41:03;;;;;;;;;34.00;30.25;;;;;5.75;63.06;102205.63;146604;709;47014;-79
2022/03/16 04:43:55;;;;;;;;;35.25;31.25;;;;;5.71;62.62;102204.44;146602;580;46020;-75
2022/03/16 04:46:47;;;;;;;;;29.00;25.00;;;;;5.68;63.10;102206.72;146602;566;46014;-80
2022/03/16 04:49:40;;;;;;;;;27.00;23.00;;;;;5.56;62.42;102200.41;146605;649;46020;-80
2022/03/16 04:52:32;;;;;;;;;27.75;25.25;;;;;5.65;62.81;102208.09;146603;635;46016;-74
2022/03/16 04:55:24;;;;;;;;;29.00;23.75;;;;;5.67;62.75;102207.50;146605;612;46011;-73
2022/03/16 04:58:16;;;;;;;;;27.75;25.00;;;;;5.72;62.86;102210.50;146602;566;46012;-73
2022/03/16 05:01:08;;;;;;;;;56.75;44.75;;;;;5.54;63.24;102176.19;146607;579;46010;-72
2022/03/16 05:04:00;;;;;;;;;66.25;49.75;;;;;5.82;62.37;102213.16;146602;578;46918;-72
2022/03/16 05:06:53;;;;;;;;;136.75;113.50;;;;;5.86;62.81;102212.72;146608;569;46020;-72
2022/03/16 05:09:45;;;;;;;;;59.00;47.00;;;;;5.84;63.43;102215.88;146609;601;46013;-72
2022/03/16 05:12:44;;;;;;;;;53.75;44.00;;;;;5.86;62.44;102215.28;146605;656;46028;-73
2022/03/16 05:15:36;;;;;;;;;38.00;34.00;;;;;5.92;62.55;102217.50;146602;571;46016;-72
2022/03/16 05:18:28;;;;;;;;;46.00;36.50;;;;;5.95;63.39;102202.38;146606;588;46030;-73
2022/03/16 05:21:20;;;;;;;;;52.00;40.00;;;;;5.96;62.55;102202.53;146602;563;46917;-73
2022/03/16 05:24:12;;;;;;;;;57.75;47.50;;;;;6.01;62.37;102208.09;146607;576;46010;-73
2022/03/16 05:27:04;;;;;;;;;47.00;38.75;;;;;6.06;62.92;102206.84;146603;614;46016;-75
2022/03/16 05:29:57;;;;;;;;;45.75;36.75;;;;;6.13;62.92;102211.81;146608;589;46010;-80
2022/03/16 05:32:49;;;;;;;;;51.50;40.75;;;;;6.17;62.42;102210.44;146605;570;46017;-81
2022/03/16 05:35:41;;;;;;;;;47.00;38.50;;;;;6.22;62.75;102210.09;146604;589;46010;-82
2022/03/16 05:38:34;;;;;;;;;51.50;40.75;;;;;6.27;63.04;102212.19;146602;604;46017;-82
2022/03/16 05:41:26;;;;;;;;;52.25;42.25;;;;;6.31;62.20;102210.03;146607;632;45020;-79
2022/03/16 05:44:18;;;;;;;;;52.50;41.00;;;;;6.38;62.51;102217.53;146604;573;46016;-78
2022/03/16 05:47:11;;;;;;;;;61.25;48.50;;;;;6.43;63.49;102226.63;146606;593;46011;-79
2022/03/16 05:50:03;;;;;;;;;65.75;51.25;;;;;6.48;63.63;102233.09;146604;658;46016;-79
2022/03/16 05:52:56;;;;;;;;;65.75;51.50;;;;;6.53;63.18;102227.47;146606;619;46010;-78
2022/03/16 05:55:48;;;;;;;;;66.00;49.75;;;;;6.59;63.34;102236.66;146603;563;46016;-78
2022/03/16 05:58:40;;;;;;;;;64.50;49.00;;;;;6.66;64.05;102240.69;146606;615;46020;-76
2022/03/16 06:01:32;;;;;;;;;64.00;49.25;;;;;6.71;63.37;102226.56;146602;598;46014;-69
2022/03/16 06:04:24;;;;;;;;;61.75;48.50;;;;;6.75;63.58;102217.41;146603;703;46020;-74
2022/03/16 06:07:16;;;;;;;;;66.75;50.25;;;;;6.81;62.91;102226.59;146604;635;46012;-74
2022/03/16 06:10:10;;;;;;;;;60.75;48.00;;;;;6.90;62.31;102236.84;146603;610;48020;-75
2022/03/16 06:13:07;;;;;;;;;63.00;47.25;;;;;7.00;61.72;102228.25;146601;565;46016;-76
2022/03/16 06:15:59;;;;;;;;;79.00;61.33;;;;;7.13;61.87;102242.41;146606;737;46021;-79
2022/03/16 06:18:51;;;;;;;;;71.33;57.33;;;;;7.26;61.38;102228.00;146609;563;46012;-73
2022/03/16 06:21:43;;;;;;;;;77.00;59.33;;;;;7.43;60.87;102237.25;146612;577;46020;-72
2022/03/16 06:24:35;;;;;;;;;74.75;57.75;;;;;7.55;60.76;102228.00;146609;612;46014;-74
2022/03/16 06:27:27;;;;;;;;;66.25;52.50;;;;;7.70;60.79;102229.31;146606;573;46020;-74
2022/03/16 06:30:20;;;;;;;;;64.75;48.50;;;;;7.84;60.71;102236.56;146604;569;46016;-75
2022/03/16 06:33:12;;;;;;;;;61.00;48.00;;;;;7.99;60.31;102228.34;146605;619;46010;-75
2022/03/16 06:36:04;;;;;;;;;67.00;53.00;;;;;8.14;59.90;102219.31;146603;593;46016;-76
2022/03/16 06:38:57;;;;;;;;;68.25;54.25;;;;;8.25;59.30;102210.75;146610;591;46010;-76
2022/03/16 06:41:49;;;;;;;;;63.75;52.00;;;;;8.38;59.19;102215.34;146603;676;46016;-77
2022/03/16 06:44:41;;;;;;;;;51.25;41.50;;;;;8.51;58.52;102209.50;146607;571;45020;-77
2022/03/16 06:47:33;;;;;;;;;50.50;40.25;;;;;8.62;58.35;102206.13;146604;717;46016;-77
2022/03/16 06:50:26;;;;;;;;;46.25;38.00;;;;;8.74;58.03;102198.47;146608;597;46010;-73
2022/03/16 06:53:18;;;;;;;;;52.00;40.00;;;;;8.85;57.53;102202.84;146605;592;45040;-71
2022/03/16 06:56:11;;;;;;;;;45.50;37.50;;;;;8.97;57.52;102197.75;146608;578;46010;-71
2022/03/16 06:59:02;;;;;;;;;58.25;43.25;;;;;9.15;57.15;102201.81;146599;580;46017;-71
2022/03/16 07:01:55;;;;;;;;;33.25;32.50;;;;;9.32;56.14;102199.72;146609;579;46010;-73
2022/03/16 07:04:47;;;;;;;;;41.25;33.75;;;;;9.56;56.23;102209.37;146602;573;46016;-73
2022/03/16 07:07:39;;;;;;;;;46.75;37.75;;;;;9.84;55.70;102204.69;146605;645;46020;-73
2022/03/16 07:10:33;;;;;;;;;46.50;35.50;;;;;10.11;55.29;102192.97;146604;571;46035;-73
2022/03/16 07:13:25;;;;;;;;;48.00;38.75;;;;;10.34;54.01;102192.16;146606;691;46020;-73
2022/03/16 07:16:17;;;;;;;;;39.75;34.50;;;;;10.48;54.50;102195.78;146605;564;47012;-73
2022/03/16 07:19:09;;;;;;;;;58.00;45.25;;;;;10.60;54.30;102194.09;146607;575;46010;-72
2022/03/16 07:22:01;;;;;;;;;50.50;38.75;;;;;10.75;53.79;102193.47;146602;622;46016;-71
2022/03/16 07:24:53;;;;;;;;;53.50;43.00;;;;;10.89;53.51;102195.34;146606;681;46010;-71
2022/03/16 07:27:45;;;;;;;;;52.00;41.00;;;;;11.01;53.05;102191.06;146603;588;46014;-71
2022/03/16 07:30:38;;;;;;;;;50.50;39.50;;;;;11.14;52.69;102186.75;146603;662;46021;-72
2022/03/16 07:33:30;;;;;;;;;53.25;42.75;;;;;11.22;53.06;102180.44;146604;579;46012;-71
2022/03/16 07:36:22;;;;;;;;;53.50;43.00;;;;;11.43;52.86;102173.25;146605;582;46021;-70
2022/03/16 07:39:14;;;;;;;;;51.75;42.25;;;;;11.68;52.06;102161.22;146602;569;46016;-72
2022/03/16 07:42:06;;;;;;;;;54.00;42.75;;;;;11.96;52.09;102164.06;146605;631;45580;-71
2022/03/16 07:44:58;;;;;;;;;59.00;44.50;;;;;12.14;51.07;102150.47;146602;565;46017;-71
2022/03/16 07:47:56;;;;;;;;;58.00;45.00;;;;;12.38;50.56;102146.03;146606;573;46010;-72
2022/03/16 07:50:48;;;;;;;;;52.25;42.00;;;;;12.61;50.59;102142.34;146602;576;46016;-71
2022/03/16 07:53:40;;;;;;;;;52.50;42.25;;;;;12.85;50.99;102137.84;146603;615;46021;-76
2022/03/16 07:56:32;;;;;;;;;53.75;43.00;;;;;13.03;50.62;102138.13;146598;575;47014;-74
2022/03/16 07:59:25;;;;;;;;;48.75;38.50;;;;;13.18;49.67;102140.00;146605;610;46010;-76
2022/03/16 08:02:20;;;;;;;;;52.50;38.75;;;;;13.26;49.74;102144.81;146605;590;46016;-73
2022/03/16 08:05:13;;;;;;;;;51.50;40.50;;;;;13.36;50.06;102140.28;146605;573;46039;-73
2022/03/16 08:08:04;;;;;;;;;58.25;46.00;;;;;13.51;49.83;102129.88;146601;672;46017;-72
2022/03/16 08:10:58;;;;;;;;;60.00;47.75;;;;;13.63;48.82;102128.03;146608;587;45020;-73
2022/03/16 08:13:50;;;;;;;;;57.50;44.75;;;;;13.75;48.99;102130.50;146605;602;46013;-73
2022/03/16 08:16:43;;;;;;;;;57.00;45.75;;;;;13.82;48.99;102129.16;146606;582;46010;-73
2022/03/16 08:19:35;;;;;;;;;58.50;46.50;;;;;13.81;49.65;102112.63;146602;610;47012;-73
2022/03/16 08:22:34;;;;;;;;;51.75;42.75;;;;;13.81;49.23;102117.84;146606;572;46010;-72
2022/03/16 08:25:27;;;;;;;;;54.75;43.75;;;;;13.72;49.35;102114.66;146601;658;46016;-73
2022/03/16 08:28:19;;;;;;;;;54.50;43.25;;;;;13.68;49.15;102115.31;146602;632;46021;-72
2022/03/16 08:31:11;;;;;;;;;49.25;40.25;;;;;13.64;49.06;102113.28;146603;616;46016;-73
2022/03/16 08:34:04;;;;;;;;;52.75;42.75;;;;;13.60;49.65;102106.09;146607;609;46010;-72
2022/03/16 08:36:56;;;;;;;;;54.75;43.25;;;;;13.63;49.71;102099.38;146601;634;47014;-72
2022/03/16 08:39:50;;;;;;;;;49.25;39.75;;;;;13.74;49.20;102092.22;146607;589;46010;-73
2022/03/16 08:42:42;;;;;;;;;51.25;42.75;;;;;13.83;49.29;102087.56;146604;563;46016;-73
2022/03/16 08:45:55;;;;;;;;;51.50;39.25;;;;;13.92;49.32;102081.97;146605;611;46020;-72
2022/03/16 08:48:47;;;;;;;;;46.75;36.50;;;;;13.99;48.72;102073.72;146602;708;46016;-73
2022/03/16 08:51:40;;;;;;;;;50.25;40.00;;;;;14.05;49.05;102066.25;146605;574;46021;-73
2022/03/16 08:54:33;;;;;;;;;46.75;36.50;;;;;14.12;48.94;102072.72;146602;591;47014;-73
2022/03/16 08:57:25;;;;;;;;;46.75;34.00;;;;;14.15;48.96;102065.06;146604;625;46010;-72
2022/03/16 09:00:18;;;;;;;;;48.00;38.00;;;;;14.20;48.90;102066.22;146603;620;47012;-73
2022/03/16 09:03:11;;;;;;;;;44.00;35.50;;;;;14.22;48.91;102061.09;146604;616;46020;-75
2022/03/16 09:06:03;;;;;;;;;49.00;38.75;;;;;14.21;49.70;102057.59;146603;687;46016;-72
2022/03/16 09:08:56;;;;;;;;;40.75;34.75;;;;;14.26;49.39;102060.47;146607;613;45020;-71
2022/03/16 09:11:48;;;;;;;;;48.00;40.00;;;;;14.31;50.25;102061.63;146603;564;46016;-72
2022/03/16 09:14:41;;;;;;;;;43.75;35.00;;;;;14.42;49.62;102050.06;146605;597;46021;-71
2022/03/16 09:17:33;;;;;;;;;40.75;33.00;;;;;14.45;48.91;102049.34;146603;611;46016;-72
2022/03/16 09:20:26;;;;;;;;;34.25;30.25;;;;;14.47;49.02;102045.12;146605;612;46010;-71
2022/03/16 09:23:18;;;;;;;;;37.75;32.75;;;;;14.53;49.94;102037.69;146605;571;46016;-71
2022/03/16 09:26:11;;;;;;;;;37.25;32.75;;;;;14.66;49.69;102037.53;146601;586;46020;-71
2022/03/16 09:29:03;;;;;;;;;34.25;27.50;;;;;14.81;49.21;102032.28;146604;584;45042;-71
2022/03/16 09:31:55;;;;;;;;;29.50;28.50;;;;;14.92;48.56;102020.72;146606;563;46020;-72
2022/03/16 09:34:47;;;;;;;;;34.25;30.25;;;;;15.02;47.66;102024.72;146603;581;46016;-72
2022/03/16 09:37:40;;;;;;;;;30.50;25.25;;;;;14.99;47.57;102016.72;146606;574;46010;-71
2022/03/16 09:40:33;;;;;;;;;32.75;30.50;;;;;15.01;48.48;102013.37;146625;615;45016;-72
2022/03/16 09:43:25;;;;;;;;;37.00;32.00;;;;;15.10;47.84;102001.59;146629;629;46011;-71
2022/03/16 09:46:21;;;;;;;;;32.00;29.25;;;;;15.16;47.85;101996.72;146628;642;45950;-71
2022/03/16 09:49:14;;;;;;;;;36.50;30.00;;;;;15.33;48.54;102001.12;146629;591;45020;-74
2022/03/16 09:52:07;;;;;;;;;32.50;29.75;;;;;15.52;47.47;101982.06;146627;584;46014;-77
2022/03/16 09:54:59;;;;;;;;;36.75;31.50;;;;;15.60;46.84;101972.84;146626;586;44020;-74
2022/03/16 09:58:04;;;;;;;;;35.75;31.00;;;;;15.54;46.69;101959.47;146627;564;45014;-75
2022/03/16 10:01:28;;;;;;;;;35.00;30.75;;;;;15.33;46.36;101955.81;146628;602;45020;-75
2022/03/16 10:04:38;;;;;;;;;35.00;28.25;;;;;15.12;47.60;101961.69;146624;635;46012;-74
2022/03/16 10:08:30;;;;;;;;;35.50;31.00;;;;;15.00;48.50;101950.59;146630;695;45020;-73
2022/03/16 10:18:05;;;;;;;;;39.50;32.50;;;;;15.09;48.17;101939.75;146621;584;45039;-74
2022/03/16 10:21:00;;;;;;;;;30.25;28.75;;;;;15.06;47.88;101937.84;146628;680;45021;-74
2022/03/16 10:23:53;;;;;;;;;37.75;33.00;;;;;15.10;48.54;101931.06;146629;563;46010;-74
2022/03/16 10:26:55;;;;;;;;;38.00;32.00;;;;;15.15;47.89;101925.28;146627;580;45020;-73
2022/03/16 10:29:47;;;;;;;;;38.00;32.75;;;;;15.11;47.70;101928.56;146626;587;45922;-73
2022/03/16 10:32:40;;;;;;;;;41.00;30.50;;;;;15.08;48.29;101922.25;146628;585;45020;-74
2022/03/16 10:35:33;;;;;;;;;30.00;27.50;;;;;15.00;47.92;101914.91;146625;650;45017;-74
2022/03/16 10:38:26;;;;;;;;;36.75;31.00;;;;;14.84;48.04;101914.94;146625;611;46010;-72
2022/03/16 10:47:55;;;;;;;;;35.00;31.25;;;;;14.58;48.93;101886.53;146604;571;46012;-72
2022/03/16 10:50:48;;;;;;;;;38.25;31.75;;;;;14.62;49.29;101885.91;146607;566;46010;-74
2022/03/16 10:53:40;;;;;;;;;36.00;31.50;;;;;14.67;49.57;101874.91;146603;629;47012;-73
2022/03/16 10:56:33;;;;;;;;;33.00;29.75;;;;;14.76;48.64;101867.53;146604;576;46020;-73
2022/03/16 10:59:31;;;;;;;;;34.25;30.25;;;;;14.90;48.56;101859.53;146603;569;46012;-73
2022/03/16 11:02:29;;;;;;;;;35.00;31.00;;;;;14.99;48.03;101860.00;146601;623;47020;-73
2022/03/16 11:05:23;;;;;;;;;35.50;31.00;;;;;14.99;47.23;101855.66;146605;600;46013;-73
2022/03/16 11:08:16;;;;;;;;;38.25;31.50;;;;;15.00;47.96;101854.84;146607;590;46010;-73
2022/03/16 11:14:20;;;;;;;;;36.50;30.50;;;;;14.98;48.51;101840.84;146604;579;46021;-73
2022/03/16 11:17:12;;;;;;;;;37.25;30.50;;;;;14.95;48.79;101839.75;146604;569;46016;-73
2022/03/16 11:20:09;;;;;;;;;42.50;34.75;;;;;14.98;48.43;101826.84;146606;598;46011;-74
2022/03/16 11:27:09;;;;;;;;;37.50;32.75;;;;;14.95;48.58;101779.69;146605;612;46022;-73
2022/03/16 11:30:45;;;;;;;;;37.00;31.50;;;;;15.16;48.67;101812.09;146603;605;46016;-73
2022/03/16 11:33:52;;;;;;;;;34.75;30.25;;;;;15.15;47.62;101797.25;146605;694;46020;-73
2022/03/16 11:36:45;;;;;;;;;34.25;28.00;;;;;15.12;46.47;101798.81;146605;606;45922;-72
2022/03/16 11:39:47;;;;;;;;;37.00;31.75;;;;;15.08;47.74;101796.88;146606;649;46010;-73
2022/03/16 11:42:39;;;;;;;;;36.00;30.25;;;;;15.06;45.95;101799.41;146604;606;45922;-73
2022/03/16 11:45:57;;;;;;;;;39.50;32.25;;;;;15.06;47.43;101786.34;146607;632;46010;-73
2022/03/16 11:48:50;;;;;;;;;42.00;32.75;;;;;15.09;47.33;101783.00;146604;583;46015;-73
2022/03/16 11:52:04;;;;;;;;;45.50;35.75;;;;;15.19;48.38;101777.41;146607;627;46010;-73
2022/03/16 11:54:55;;;;;;;;;42.25;33.25;;;;;15.35;46.91;101772.09;146602;633;46016;-74
2022/03/16 11:57:56;;;;;;;;;45.25;34.00;;;;;15.54;46.81;101757.31;146603;617;46021;-74
2022/03/16 12:00:48;;;;;;;;;39.00;33.25;;;;;15.69;47.60;101755.44;146602;637;46921;-73
2022/03/16 12:03:48;;;;;;;;;45.00;36.25;;;;;15.82;47.02;101754.28;146606;641;46010;-73
2022/03/16 12:07:22;;;;;;;;;43.00;35.00;;;;;15.93;46.65;101746.13;146603;563;46017;-74
2022/03/16 12:10:16;;;;;;;;;44.00;36.25;;;;;15.99;46.69;101732.44;146606;676;46010;-73
2022/03/16 12:13:15;;;;;;;;;47.25;37.50;;;;;15.97;47.36;101723.59;146604;579;46013;-74
2022/03/16 12:16:11;;;;;;;;;46.50;36.00;;;;;15.86;46.37;101722.25;146605;803;46020;-73
2022/03/16 12:19:34;;;;;;;;;41.75;33.50;;;;;15.76;45.72;101714.78;146602;572;46015;-73
2022/03/16 12:22:30;;;;;;;;;42.00;34.50;;;;;15.62;46.10;101711.50;146607;697;46020;-73
2022/03/16 12:25:49;;;;;;;;;37.50;32.50;;;;;15.24;46.54;101671.41;146604;610;46016;-73
2022/03/16 12:28:56;;;;;;;;;37.75;32.25;;;;;15.36;46.24;101699.84;146606;565;46010;-73
2022/03/16 12:31:48;;;;;;;;;32.25;28.50;;;;;15.33;47.09;101697.97;146605;661;46012;-73
2022/03/16 12:34:40;;;;;;;;;45.00;35.50;;;;;15.38;47.06;101688.63;146606;574;46021;-73
2022/03/16 12:37:32;;;;;;;;;45.75;35.00;;;;;15.44;46.33;101688.00;146603;640;46012;-73
2022/03/16 12:40:26;;;;;;;;;46.75;36.25;;;;;15.51;47.08;101683.97;146627;588;46010;-73
2022/03/16 12:43:28;;;;;;;;;43.50;36.00;;;;;15.58;46.97;101686.06;146627;573;45016;-71
2022/03/16 12:46:30;;;;;;;;;42.75;36.00;;;;;15.64;46.98;101673.28;146624;575;46010;-73
2022/03/16 12:49:24;;;;;;;;;45.00;36.00;;;;;15.66;45.68;101671.59;146626;638;45017;-72
2022/03/16 12:52:16;;;;;;;;;46.00;37.75;;;;;15.70;47.63;101671.88;146627;606;46010;-73
2022/03/16 12:55:15;;;;;;;;;47.25;37.50;;;;;15.83;45.85;101661.97;146629;634;45010;-73
2022/03/16 12:58:07;;;;;;;;;44.25;35.25;;;;;15.84;44.31;101658.50;146625;634;45021;-73
2022/03/16 13:01:03;;;;;;;;;45.50;37.75;;;;;15.74;44.34;101643.25;146626;615;45030;-74
2022/03/16 13:04:10;;;;;;;;;44.00;36.75;;;;;15.75;46.54;101642.41;146623;629;46918;-72
2022/03/16 13:07:03;;;;;;;;;47.00;35.00;;;;;15.84;46.17;101648.03;146626;600;46921;-72
2022/03/16 13:09:56;;;;;;;;;45.25;37.75;;;;;15.95;45.99;101638.97;146630;571;45030;-72
2022/03/16 13:12:56;;;;;;;;;41.00;34.75;;;;;16.05;45.79;101633.28;146626;575;45016;-73
2022/03/16 13:15:50;;;;;;;;;45.75;38.25;;;;;16.10;44.86;101625.63;146630;631;45010;-72
2022/03/16 13:18:43;;;;;;;;;47.75;38.75;;;;;16.06;44.42;101622.00;146625;576;46015;-74
2022/03/16 13:21:36;;;;;;;;;44.25;35.00;;;;;16.00;43.85;101631.31;146628;634;45020;-75
2022/03/16 13:24:28;;;;;;;;;42.50;34.00;;;;;15.96;44.40;101625.03;146626;762;45010;-75
2022/03/16 13:27:22;;;;;;;;;43.50;33.50;;;;;16.00;44.61;101621.72;146624;581;46011;-76
2022/03/16 13:30:22;;;;;;;;;43.00;35.00;;;;;16.07;45.05;101615.03;146630;693;45010;-75
2022/03/16 13:33:16;;;;;;;;;39.00;33.25;;;;;16.12;43.29;101608.28;146628;574;45016;-73
2022/03/16 13:36:15;;;;;;;;;41.50;33.75;;;;;16.05;41.26;101608.88;146628;579;45012;-73
2022/03/16 13:39:45;;;;;;;;;40.75;33.75;;;;;15.64;42.27;101574.81;146619;594;45020;-73